sensor_id;sensor_type;location;lat;lon;timestamp;temperature;humidity
75738;DHT22;64356;45.638;13.764;2023-08-06T00:00:04;24.80;60.30
75738;DHT22;64356;45.638;13.764;2023-08-06T00:02:30;24.80;60.30
75738;DHT22;64356;45.638;13.764;2023-08-06T00:04:55;24.80;60.30
75738;DHT22;64356;45.638;13.764;2023-08-06T00:07:21;24.90;60.30
75738;DHT22;64356;45.638;13.764;2023-08-06T00:09:46;24.90;60.60
75738;DHT22;64356;45.638;13.764;2023-08-06T00:12:12;24.80;60.60
75738;DHT22;64356;45.638;13.764;2023-08-06T00:14:37;24.80;60.70
75738;DHT22;64356;45.638;13.764;2023-08-06T00:17:03;24.80;60.60
75738;DHT22;64356;45.638;13.764;2023-08-06T00:19:30;24.80;60.70
75738;DHT22;64356;45.638;13.764;2023-08-06T00:21:56;24.80;60.70
75738;DHT22;64356;45.638;13.764;2023-08-06T00:24:21;24.80;60.80
75738;DHT22;64356;45.638;13.764;2023-08-06T00:26:47;24.80;60.80
75738;DHT22;64356;45.638;13.764;2023-08-06T00:29:13;24.80;60.80
75738;DHT22;64356;45.638;13.764;2023-08-06T00:31:38;24.80;60.80
75738;DHT22;64356;45.638;13.764;2023-08-06T00:34:04;24.80;60.80
75738;DHT22;64356;45.638;13.764;2023-08-06T00:36:29;24.80;60.80
75738;DHT22;64356;45.638;13.764;2023-08-06T00:38:55;24.80;60.80
75738;DHT22;64356;45.638;13.764;2023-08-06T00:41:21;24.80;60.80
75738;DHT22;64356;45.638;13.764;2023-08-06T00:43:46;24.80;60.90
75738;DHT22;64356;45.638;13.764;2023-08-06T00:46:12;24.80;60.80
75738;DHT22;64356;45.638;13.764;2023-08-06T00:48:38;24.80;60.80
75738;DHT22;64356;45.638;13.764;2023-08-06T00:51:04;24.80;60.80
75738;DHT22;64356;45.638;13.764;2023-08-06T00:53:29;24.80;60.80
75738;DHT22;64356;45.638;13.764;2023-08-06T00:55:55;24.80;60.70
75738;DHT22;64356;45.638;13.764;2023-08-06T00:58:21;24.80;60.70
75738;DHT22;64356;45.638;13.764;2023-08-06T01:00:46;24.80;60.60
75738;DHT22;64356;45.638;13.764;2023-08-06T01:03:12;24.80;60.50
75738;DHT22;64356;45.638;13.764;2023-08-06T01:05:38;24.80;60.60
75738;DHT22;64356;45.638;13.764;2023-08-06T01:11:17;24.80;60.50
75738;DHT22;64356;45.638;13.764;2023-08-06T01:13:46;24.80;60.30
75738;DHT22;64356;45.638;13.764;2023-08-06T01:16:19;24.80;60.40
75738;DHT22;64356;45.638;13.764;2023-08-06T01:18:46;24.80;60.40
75738;DHT22;64356;45.638;13.764;2023-08-06T01:21:14;24.80;60.40
75738;DHT22;64356;45.638;13.764;2023-08-06T01:23:40;24.80;60.50
75738;DHT22;64356;45.638;13.764;2023-08-06T01:31:21;24.80;60.60
75738;DHT22;64356;45.638;13.764;2023-08-06T01:33:48;24.80;60.50
75738;DHT22;64356;45.638;13.764;2023-08-06T01:36:15;24.80;60.60
75738;DHT22;64356;45.638;13.764;2023-08-06T01:38:41;24.80;60.70
75738;DHT22;64356;45.638;13.764;2023-08-06T01:41:07;24.80;60.70
75738;DHT22;64356;45.638;13.764;2023-08-06T01:43:32;24.80;60.70
75738;DHT22;64356;45.638;13.764;2023-08-06T01:45:58;24.80;60.80
75738;DHT22;64356;45.638;13.764;2023-08-06T01:48:23;24.80;60.90
75738;DHT22;64356;45.638;13.764;2023-08-06T01:50:49;24.80;61.10
75738;DHT22;64356;45.638;13.764;2023-08-06T01:53:14;24.80;61.10
75738;DHT22;64356;45.638;13.764;2023-08-06T01:55:40;24.80;61.00
75738;DHT22;64356;45.638;13.764;2023-08-06T01:58:06;24.80;61.00
75738;DHT22;64356;45.638;13.764;2023-08-06T02:00:31;24.80;60.90
75738;DHT22;64356;45.638;13.764;2023-08-06T02:02:57;24.70;60.80
75738;DHT22;64356;45.638;13.764;2023-08-06T02:05:22;24.80;60.80
75738;DHT22;64356;45.638;13.764;2023-08-06T02:07:48;24.80;60.80
75738;DHT22;64356;45.638;13.764;2023-08-06T02:10:13;24.70;60.70
75738;DHT22;64356;45.638;13.764;2023-08-06T02:12:39;24.80;60.80
75738;DHT22;64356;45.638;13.764;2023-08-06T02:15:05;24.80;60.80
75738;DHT22;64356;45.638;13.764;2023-08-06T02:17:30;24.80;60.80
75738;DHT22;64356;45.638;13.764;2023-08-06T02:19:56;24.80;60.70
75738;DHT22;64356;45.638;13.764;2023-08-06T02:22:21;24.70;60.70
75738;DHT22;64356;45.638;13.764;2023-08-06T02:24:49;24.80;60.80
75738;DHT22;64356;45.638;13.764;2023-08-06T02:27:14;24.80;60.80
75738;DHT22;64356;45.638;13.764;2023-08-06T02:29:40;24.80;60.80
75738;DHT22;64356;45.638;13.764;2023-08-06T02:32:06;24.70;60.70
75738;DHT22;64356;45.638;13.764;2023-08-06T02:34:32;24.70;60.70
75738;DHT22;64356;45.638;13.764;2023-08-06T02:36:58;24.70;60.60
75738;DHT22;64356;45.638;13.764;2023-08-06T02:39:23;24.70;60.70
75738;DHT22;64356;45.638;13.764;2023-08-06T02:41:49;24.70;60.70
75738;DHT22;64356;45.638;13.764;2023-08-06T02:44:14;24.70;60.60
75738;DHT22;64356;45.638;13.764;2023-08-06T02:46:40;24.80;60.60
75738;DHT22;64356;45.638;13.764;2023-08-06T02:49:06;24.70;60.50
75738;DHT22;64356;45.638;13.764;2023-08-06T02:51:31;24.70;60.50
75738;DHT22;64356;45.638;13.764;2023-08-06T02:53:57;24.70;60.50
75738;DHT22;64356;45.638;13.764;2023-08-06T02:56:22;24.70;60.50
75738;DHT22;64356;45.638;13.764;2023-08-06T02:58:48;24.70;60.50
75738;DHT22;64356;45.638;13.764;2023-08-06T03:01:13;24.70;60.50
75738;DHT22;64356;45.638;13.764;2023-08-06T03:03:39;24.70;60.40
75738;DHT22;64356;45.638;13.764;2023-08-06T03:06:05;24.70;60.30
75738;DHT22;64356;45.638;13.764;2023-08-06T03:08:30;24.70;60.30
75738;DHT22;64356;45.638;13.764;2023-08-06T03:10:56;24.70;60.30
75738;DHT22;64356;45.638;13.764;2023-08-06T03:13:21;24.70;60.30
75738;DHT22;64356;45.638;13.764;2023-08-06T03:15:56;24.70;60.10
75738;DHT22;64356;45.638;13.764;2023-08-06T03:18:22;24.70;60.10
75738;DHT22;64356;45.638;13.764;2023-08-06T03:20:49;24.70;60.10
75738;DHT22;64356;45.638;13.764;2023-08-06T03:23:14;24.70;60.20
75738;DHT22;64356;45.638;13.764;2023-08-06T03:25:40;24.70;60.10
75738;DHT22;64356;45.638;13.764;2023-08-06T03:28:06;24.70;60.20
75738;DHT22;64356;45.638;13.764;2023-08-06T03:30:31;24.70;60.10
75738;DHT22;64356;45.638;13.764;2023-08-06T03:32:57;24.70;60.20
75738;DHT22;64356;45.638;13.764;2023-08-06T03:35:22;24.70;60.20
75738;DHT22;64356;45.638;13.764;2023-08-06T03:37:48;24.70;60.20
75738;DHT22;64356;45.638;13.764;2023-08-06T03:40:15;24.70;60.30
75738;DHT22;64356;45.638;13.764;2023-08-06T03:42:40;24.70;60.80
75738;DHT22;64356;45.638;13.764;2023-08-06T03:45:06;24.70;60.30
75738;DHT22;64356;45.638;13.764;2023-08-06T03:47:32;24.70;60.30
75738;DHT22;64356;45.638;13.764;2023-08-06T03:49:57;24.70;60.30
75738;DHT22;64356;45.638;13.764;2023-08-06T03:52:23;24.70;60.30
75738;DHT22;64356;45.638;13.764;2023-08-06T03:54:49;24.70;60.30
75738;DHT22;64356;45.638;13.764;2023-08-06T03:57:14;24.70;60.40
75738;DHT22;64356;45.638;13.764;2023-08-06T03:59:40;24.70;60.50
75738;DHT22;64356;45.638;13.764;2023-08-06T04:02:05;24.70;60.40
75738;DHT22;64356;45.638;13.764;2023-08-06T04:04:31;24.70;60.50
75738;DHT22;64356;45.638;13.764;2023-08-06T04:06:56;24.70;60.50
75738;DHT22;64356;45.638;13.764;2023-08-06T04:09:22;24.70;60.50
75738;DHT22;64356;45.638;13.764;2023-08-06T04:11:47;24.70;60.50
75738;DHT22;64356;45.638;13.764;2023-08-06T04:14:13;24.70;60.50
75738;DHT22;64356;45.638;13.764;2023-08-06T04:16:38;24.70;60.80
75738;DHT22;64356;45.638;13.764;2023-08-06T04:19:04;24.60;60.80
75738;DHT22;64356;45.638;13.764;2023-08-06T04:21:29;24.70;60.80
75738;DHT22;64356;45.638;13.764;2023-08-06T04:23:55;24.60;60.90
75738;DHT22;64356;45.638;13.764;2023-08-06T04:26:21;24.70;60.90
75738;DHT22;64356;45.638;13.764;2023-08-06T04:28:47;24.70;60.90
75738;DHT22;64356;45.638;13.764;2023-08-06T04:31:12;24.70;60.90
75738;DHT22;64356;45.638;13.764;2023-08-06T04:33:38;24.60;61.00
75738;DHT22;64356;45.638;13.764;2023-08-06T04:36:04;24.60;61.00
75738;DHT22;64356;45.638;13.764;2023-08-06T04:38:30;24.60;61.10
75738;DHT22;64356;45.638;13.764;2023-08-06T04:40:55;24.60;61.40
75738;DHT22;64356;45.638;13.764;2023-08-06T04:43:21;24.60;61.40
75738;DHT22;64356;45.638;13.764;2023-08-06T04:45:49;24.60;61.40
75738;DHT22;64356;45.638;13.764;2023-08-06T04:48:15;24.70;61.40
75738;DHT22;64356;45.638;13.764;2023-08-06T04:50:47;24.60;61.40
75738;DHT22;64356;45.638;13.764;2023-08-06T04:53:13;24.60;61.50
75738;DHT22;64356;45.638;13.764;2023-08-06T04:55:39;24.60;61.50
75738;DHT22;64356;45.638;13.764;2023-08-06T04:58:04;24.60;61.50
75738;DHT22;64356;45.638;13.764;2023-08-06T05:00:30;24.60;61.80
75738;DHT22;64356;45.638;13.764;2023-08-06T05:02:56;24.60;61.90
75738;DHT22;64356;45.638;13.764;2023-08-06T05:05:21;24.70;62.10
75738;DHT22;64356;45.638;13.764;2023-08-06T05:07:47;24.60;62.20
75738;DHT22;64356;45.638;13.764;2023-08-06T05:10:13;24.60;62.40
75738;DHT22;64356;45.638;13.764;2023-08-06T05:12:38;24.60;62.50
75738;DHT22;64356;45.638;13.764;2023-08-06T05:15:04;24.60;62.70
75738;DHT22;64356;45.638;13.764;2023-08-06T05:17:30;24.60;63.40
75738;DHT22;64356;45.638;13.764;2023-08-06T05:19:55;24.60;62.80
75738;DHT22;64356;45.638;13.764;2023-08-06T05:22:21;24.60;62.90
75738;DHT22;64356;45.638;13.764;2023-08-06T05:24:46;24.60;62.90
75738;DHT22;64356;45.638;13.764;2023-08-06T05:27:12;24.60;62.80
75738;DHT22;64356;45.638;13.764;2023-08-06T05:29:37;24.60;62.70
75738;DHT22;64356;45.638;13.764;2023-08-06T05:32:03;24.60;62.60
75738;DHT22;64356;45.638;13.764;2023-08-06T05:34:29;24.60;63.20
75738;DHT22;64356;45.638;13.764;2023-08-06T05:36:54;24.60;62.80
75738;DHT22;64356;45.638;13.764;2023-08-06T05:39:20;24.60;63.00
75738;DHT22;64356;45.638;13.764;2023-08-06T05:41:45;24.60;63.00
75738;DHT22;64356;45.638;13.764;2023-08-06T05:44:11;24.60;62.90
75738;DHT22;64356;45.638;13.764;2023-08-06T05:46:36;24.60;62.90
75738;DHT22;64356;45.638;13.764;2023-08-06T05:49:02;24.60;62.80
75738;DHT22;64356;45.638;13.764;2023-08-06T05:51:28;24.60;62.80
75738;DHT22;64356;45.638;13.764;2023-08-06T05:53:54;24.60;62.90
75738;DHT22;64356;45.638;13.764;2023-08-06T05:56:20;24.60;62.90
75738;DHT22;64356;45.638;13.764;2023-08-06T05:58:45;24.60;63.00
75738;DHT22;64356;45.638;13.764;2023-08-06T06:01:12;24.60;63.00
75738;DHT22;64356;45.638;13.764;2023-08-06T06:03:38;24.60;62.80
75738;DHT22;64356;45.638;13.764;2023-08-06T06:06:04;24.60;63.00
75738;DHT22;64356;45.638;13.764;2023-08-06T06:08:29;24.60;63.00
75738;DHT22;64356;45.638;13.764;2023-08-06T06:10:55;24.60;63.40
75738;DHT22;64356;45.638;13.764;2023-08-06T06:13:20;24.60;63.50
75738;DHT22;64356;45.638;13.764;2023-08-06T06:15:46;24.60;63.70
75738;DHT22;64356;45.638;13.764;2023-08-06T06:18:12;24.60;63.60
75738;DHT22;64356;45.638;13.764;2023-08-06T06:20:37;24.60;63.60
75738;DHT22;64356;45.638;13.764;2023-08-06T06:23:03;24.60;63.60
75738;DHT22;64356;45.638;13.764;2023-08-06T06:25:29;24.60;63.60
75738;DHT22;64356;45.638;13.764;2023-08-06T06:27:54;24.60;63.60
75738;DHT22;64356;45.638;13.764;2023-08-06T06:30:20;24.60;63.40
75738;DHT22;64356;45.638;13.764;2023-08-06T06:32:45;24.60;63.50
75738;DHT22;64356;45.638;13.764;2023-08-06T06:35:12;24.60;63.30
75738;DHT22;64356;45.638;13.764;2023-08-06T06:37:37;24.60;63.20
75738;DHT22;64356;45.638;13.764;2023-08-06T06:40:03;24.60;63.10
75738;DHT22;64356;45.638;13.764;2023-08-06T06:42:29;24.60;63.10
75738;DHT22;64356;45.638;13.764;2023-08-06T06:44:55;24.60;62.90
75738;DHT22;64356;45.638;13.764;2023-08-06T06:47:20;24.60;63.50
75738;DHT22;64356;45.638;13.764;2023-08-06T06:49:46;24.60;62.90
75738;DHT22;64356;45.638;13.764;2023-08-06T06:52:11;24.60;62.80
75738;DHT22;64356;45.638;13.764;2023-08-06T06:54:37;24.60;62.50
75738;DHT22;64356;45.638;13.764;2023-08-06T06:57:02;24.60;62.60
75738;DHT22;64356;45.638;13.764;2023-08-06T06:59:28;24.60;62.40
75738;DHT22;64356;45.638;13.764;2023-08-06T07:01:53;24.60;62.30
75738;DHT22;64356;45.638;13.764;2023-08-06T07:04:19;24.60;62.30
75738;DHT22;64356;45.638;13.764;2023-08-06T07:06:45;24.60;62.20
75738;DHT22;64356;45.638;13.764;2023-08-06T07:09:10;24.60;62.10
75738;DHT22;64356;45.638;13.764;2023-08-06T07:11:36;24.60;62.20
75738;DHT22;64356;45.638;13.764;2023-08-06T07:14:01;24.60;62.40
75738;DHT22;64356;45.638;13.764;2023-08-06T07:16:27;24.60;62.70
75738;DHT22;64356;45.638;13.764;2023-08-06T07:18:53;24.60;62.60
75738;DHT22;64356;45.638;13.764;2023-08-06T07:21:18;24.60;62.60
75738;DHT22;64356;45.638;13.764;2023-08-06T07:23:45;24.60;62.60
75738;DHT22;64356;45.638;13.764;2023-08-06T07:26:10;24.60;62.60
75738;DHT22;64356;45.638;13.764;2023-08-06T07:28:36;24.60;62.80
75738;DHT22;64356;45.638;13.764;2023-08-06T07:31:02;24.60;63.10
75738;DHT22;64356;45.638;13.764;2023-08-06T07:33:28;24.60;63.20
75738;DHT22;64356;45.638;13.764;2023-08-06T07:35:53;24.60;63.20
75738;DHT22;64356;45.638;13.764;2023-08-06T07:38:19;24.60;63.30
75738;DHT22;64356;45.638;13.764;2023-08-06T07:40:44;24.60;63.30
75738;DHT22;64356;45.638;13.764;2023-08-06T07:43:10;24.60;63.40
75738;DHT22;64356;45.638;13.764;2023-08-06T07:45:36;24.60;63.30
75738;DHT22;64356;45.638;13.764;2023-08-06T07:48:02;24.60;64.00
75738;DHT22;64356;45.638;13.764;2023-08-06T07:50:27;24.60;63.40
75738;DHT22;64356;45.638;13.764;2023-08-06T07:52:53;24.60;63.60
75738;DHT22;64356;45.638;13.764;2023-08-06T07:55:19;24.50;63.40
75738;DHT22;64356;45.638;13.764;2023-08-06T07:57:44;24.60;63.50
75738;DHT22;64356;45.638;13.764;2023-08-06T08:00:10;24.60;63.50
75738;DHT22;64356;45.638;13.764;2023-08-06T08:02:36;24.60;63.60
75738;DHT22;64356;45.638;13.764;2023-08-06T08:05:01;24.60;63.50
75738;DHT22;64356;45.638;13.764;2023-08-06T08:07:27;24.60;63.50
75738;DHT22;64356;45.638;13.764;2023-08-06T08:09:55;24.60;63.60
75738;DHT22;64356;45.638;13.764;2023-08-06T08:12:21;24.60;63.50
75738;DHT22;64356;45.638;13.764;2023-08-06T08:14:46;24.60;63.50
75738;DHT22;64356;45.638;13.764;2023-08-06T08:17:12;24.60;63.50
75738;DHT22;64356;45.638;13.764;2023-08-06T08:19:38;24.60;63.50
75738;DHT22;64356;45.638;13.764;2023-08-06T08:22:03;24.60;63.50
75738;DHT22;64356;45.638;13.764;2023-08-06T08:24:29;24.60;63.50
75738;DHT22;64356;45.638;13.764;2023-08-06T08:26:55;24.60;63.50
75738;DHT22;64356;45.638;13.764;2023-08-06T08:29:21;24.60;63.50
75738;DHT22;64356;45.638;13.764;2023-08-06T08:31:47;24.60;63.70
75738;DHT22;64356;45.638;13.764;2023-08-06T08:34:18;24.60;63.80
75738;DHT22;64356;45.638;13.764;2023-08-06T08:36:43;24.60;63.80
75738;DHT22;64356;45.638;13.764;2023-08-06T08:39:12;24.60;63.80
75738;DHT22;64356;45.638;13.764;2023-08-06T08:41:37;24.60;63.80
75738;DHT22;64356;45.638;13.764;2023-08-06T08:44:04;24.60;63.80
75738;DHT22;64356;45.638;13.764;2023-08-06T08:46:32;24.60;64.20
75738;DHT22;64356;45.638;13.764;2023-08-06T08:48:58;24.60;63.90
75738;DHT22;64356;45.638;13.764;2023-08-06T08:51:24;24.60;64.00
75738;DHT22;64356;45.638;13.764;2023-08-06T08:53:50;24.60;64.00
75738;DHT22;64356;45.638;13.764;2023-08-06T08:56:18;24.60;64.10
75738;DHT22;64356;45.638;13.764;2023-08-06T08:58:44;24.60;64.00
75738;DHT22;64356;45.638;13.764;2023-08-06T09:01:10;24.60;64.10
75738;DHT22;64356;45.638;13.764;2023-08-06T09:03:36;24.60;64.10
75738;DHT22;64356;45.638;13.764;2023-08-06T09:06:01;24.60;64.20
75738;DHT22;64356;45.638;13.764;2023-08-06T09:08:29;24.60;64.40
75738;DHT22;64356;45.638;13.764;2023-08-06T09:10:57;24.60;64.40
75738;DHT22;64356;45.638;13.764;2023-08-06T09:13:23;24.60;64.30
75738;DHT22;64356;45.638;13.764;2023-08-06T09:15:49;24.60;64.40
75738;DHT22;64356;45.638;13.764;2023-08-06T09:18:24;24.60;64.40
75738;DHT22;64356;45.638;13.764;2023-08-06T09:20:51;24.60;64.50
75738;DHT22;64356;45.638;13.764;2023-08-06T09:23:16;24.70;64.50
75738;DHT22;64356;45.638;13.764;2023-08-06T09:25:42;24.60;64.40
75738;DHT22;64356;45.638;13.764;2023-08-06T09:28:07;24.70;64.40
75738;DHT22;64356;45.638;13.764;2023-08-06T09:30:34;24.70;64.50
75738;DHT22;64356;45.638;13.764;2023-08-06T09:33:00;24.60;64.50
75738;DHT22;64356;45.638;13.764;2023-08-06T09:35:29;24.70;64.70
75738;DHT22;64356;45.638;13.764;2023-08-06T09:37:55;24.60;64.50
75738;DHT22;64356;45.638;13.764;2023-08-06T09:40:28;24.70;64.50
75738;DHT22;64356;45.638;13.764;2023-08-06T09:42:54;24.70;64.50
75738;DHT22;64356;45.638;13.764;2023-08-06T09:45:19;24.70;64.50
75738;DHT22;64356;45.638;13.764;2023-08-06T09:47:47;24.70;64.50
75738;DHT22;64356;45.638;13.764;2023-08-06T09:50:16;24.70;64.50
75738;DHT22;64356;45.638;13.764;2023-08-06T09:52:42;24.70;64.70
75738;DHT22;64356;45.638;13.764;2023-08-06T09:55:08;24.60;64.70
75738;DHT22;64356;45.638;13.764;2023-08-06T09:57:35;24.60;64.80
75738;DHT22;64356;45.638;13.764;2023-08-06T10:00:01;24.60;65.00
75738;DHT22;64356;45.638;13.764;2023-08-06T10:02:27;24.60;65.30
75738;DHT22;64356;45.638;13.764;2023-08-06T10:04:53;24.60;65.50
75738;DHT22;64356;45.638;13.764;2023-08-06T10:07:20;24.60;65.70
75738;DHT22;64356;45.638;13.764;2023-08-06T10:09:47;24.60;65.80
75738;DHT22;64356;45.638;13.764;2023-08-06T10:12:13;24.60;65.80
75738;DHT22;64356;45.638;13.764;2023-08-06T10:14:39;24.60;65.80
75738;DHT22;64356;45.638;13.764;2023-08-06T10:17:06;24.60;65.80
75738;DHT22;64356;45.638;13.764;2023-08-06T10:19:32;24.60;65.70
75738;DHT22;64356;45.638;13.764;2023-08-06T10:22:08;24.60;65.70
75738;DHT22;64356;45.638;13.764;2023-08-06T10:27:19;24.60;65.40
75738;DHT22;64356;45.638;13.764;2023-08-06T10:29:44;24.60;65.30
75738;DHT22;64356;45.638;13.764;2023-08-06T10:32:10;24.60;65.30
75738;DHT22;64356;45.638;13.764;2023-08-06T10:34:55;24.60;65.30
75738;DHT22;64356;45.638;13.764;2023-08-06T10:37:21;24.60;65.30
75738;DHT22;64356;45.638;13.764;2023-08-06T10:39:51;24.70;65.20
75738;DHT22;64356;45.638;13.764;2023-08-06T10:42:20;24.70;65.10
75738;DHT22;64356;45.638;13.764;2023-08-06T10:47:30;24.60;65.10
75738;DHT22;64356;45.638;13.764;2023-08-06T10:50:03;24.70;65.30
75738;DHT22;64356;45.638;13.764;2023-08-06T10:52:28;24.70;65.40
75738;DHT22;64356;45.638;13.764;2023-08-06T10:54:54;24.70;65.40
75738;DHT22;64356;45.638;13.764;2023-08-06T10:57:20;24.70;65.30
75738;DHT22;64356;45.638;13.764;2023-08-06T10:59:46;24.80;65.20
75738;DHT22;64356;45.638;13.764;2023-08-06T11:02:11;24.80;65.10
75738;DHT22;64356;45.638;13.764;2023-08-06T11:04:37;24.80;65.20
75738;DHT22;64356;45.638;13.764;2023-08-06T11:07:03;24.80;65.10
75738;DHT22;64356;45.638;13.764;2023-08-06T11:09:28;24.90;64.90
75738;DHT22;64356;45.638;13.764;2023-08-06T11:11:54;24.90;64.60
75738;DHT22;64356;45.638;13.764;2023-08-06T11:14:19;25.00;64.40
75738;DHT22;64356;45.638;13.764;2023-08-06T11:16:46;24.90;64.10
75738;DHT22;64356;45.638;13.764;2023-08-06T11:19:12;25.00;64.00
75738;DHT22;64356;45.638;13.764;2023-08-06T11:21:37;25.00;63.70
75738;DHT22;64356;45.638;13.764;2023-08-06T11:24:04;25.00;63.70
75738;DHT22;64356;45.638;13.764;2023-08-06T11:26:30;25.10;63.60
75738;DHT22;64356;45.638;13.764;2023-08-06T11:28:55;25.10;63.50
75738;DHT22;64356;45.638;13.764;2023-08-06T11:31:22;25.10;63.20
75738;DHT22;64356;45.638;13.764;2023-08-06T11:33:49;25.10;62.80
75738;DHT22;64356;45.638;13.764;2023-08-06T11:36:15;25.10;62.60
75738;DHT22;64356;45.638;13.764;2023-08-06T11:38:41;25.10;62.60
75738;DHT22;64356;45.638;13.764;2023-08-06T11:41:06;25.00;62.80
75738;DHT22;64356;45.638;13.764;2023-08-06T11:43:32;25.00;62.40
75738;DHT22;64356;45.638;13.764;2023-08-06T11:45:58;25.00;62.40
75738;DHT22;64356;45.638;13.764;2023-08-06T11:48:25;25.00;62.30
75738;DHT22;64356;45.638;13.764;2023-08-06T11:50:53;25.00;62.00
75738;DHT22;64356;45.638;13.764;2023-08-06T11:53:19;25.00;62.20
75738;DHT22;64356;45.638;13.764;2023-08-06T11:55:44;25.00;62.10
75738;DHT22;64356;45.638;13.764;2023-08-06T11:58:10;25.00;61.80
75738;DHT22;64356;45.638;13.764;2023-08-06T12:00:37;25.00;61.40
75738;DHT22;64356;45.638;13.764;2023-08-06T12:03:04;25.00;61.10
75738;DHT22;64356;45.638;13.764;2023-08-06T12:05:30;25.00;61.00
75738;DHT22;64356;45.638;13.764;2023-08-06T12:07:57;25.10;60.60
75738;DHT22;64356;45.638;13.764;2023-08-06T12:10:26;25.10;60.30
75738;DHT22;64356;45.638;13.764;2023-08-06T12:12:55;25.10;60.30
75738;DHT22;64356;45.638;13.764;2023-08-06T12:15:21;25.10;60.20
75738;DHT22;64356;45.638;13.764;2023-08-06T12:17:47;25.10;60.20
75738;DHT22;64356;45.638;13.764;2023-08-06T12:20:12;25.10;59.70
75738;DHT22;64356;45.638;13.764;2023-08-06T12:22:38;25.20;59.80
75738;DHT22;64356;45.638;13.764;2023-08-06T12:25:09;25.20;59.30
75738;DHT22;64356;45.638;13.764;2023-08-06T12:27:37;25.20;59.60
75738;DHT22;64356;45.638;13.764;2023-08-06T12:30:03;25.20;59.70
75738;DHT22;64356;45.638;13.764;2023-08-06T12:32:29;25.20;59.30
75738;DHT22;64356;45.638;13.764;2023-08-06T12:34:54;25.20;59.20
75738;DHT22;64356;45.638;13.764;2023-08-06T12:37:20;25.20;60.10
75738;DHT22;64356;45.638;13.764;2023-08-06T12:39:46;25.30;59.60
75738;DHT22;64356;45.638;13.764;2023-08-06T12:42:12;25.30;59.60
75738;DHT22;64356;45.638;13.764;2023-08-06T12:44:37;25.30;59.20
75738;DHT22;64356;45.638;13.764;2023-08-06T12:47:03;25.40;59.10
75738;DHT22;64356;45.638;13.764;2023-08-06T12:49:28;25.40;59.60
75738;DHT22;64356;45.638;13.764;2023-08-06T12:51:54;25.40;59.30
75738;DHT22;64356;45.638;13.764;2023-08-06T12:54:21;25.40;59.30
75738;DHT22;64356;45.638;13.764;2023-08-06T12:56:47;25.40;59.20
75738;DHT22;64356;45.638;13.764;2023-08-06T12:59:13;25.40;59.00
75738;DHT22;64356;45.638;13.764;2023-08-06T13:01:39;25.40;59.20
75738;DHT22;64356;45.638;13.764;2023-08-06T13:04:05;25.40;59.20
75738;DHT22;64356;45.638;13.764;2023-08-06T13:06:30;25.50;59.30
75738;DHT22;64356;45.638;13.764;2023-08-06T13:09:01;25.50;59.70
75738;DHT22;64356;45.638;13.764;2023-08-06T13:11:27;25.50;59.40
75738;DHT22;64356;45.638;13.764;2023-08-06T13:13:52;25.50;59.30
75738;DHT22;64356;45.638;13.764;2023-08-06T13:16:18;25.50;59.20
75738;DHT22;64356;45.638;13.764;2023-08-06T13:18:43;25.50;59.10
75738;DHT22;64356;45.638;13.764;2023-08-06T13:21:09;25.50;58.70
75738;DHT22;64356;45.638;13.764;2023-08-06T13:23:35;25.50;58.50
75738;DHT22;64356;45.638;13.764;2023-08-06T13:26:00;25.50;58.30
75738;DHT22;64356;45.638;13.764;2023-08-06T13:28:26;25.50;58.30
75738;DHT22;64356;45.638;13.764;2023-08-06T13:30:51;25.50;58.10
75738;DHT22;64356;45.638;13.764;2023-08-06T13:33:17;25.50;57.90
75738;DHT22;64356;45.638;13.764;2023-08-06T13:35:42;25.60;58.00
75738;DHT22;64356;45.638;13.764;2023-08-06T13:38:08;25.50;57.80
75738;DHT22;64356;45.638;13.764;2023-08-06T13:40:34;25.60;57.80
75738;DHT22;64356;45.638;13.764;2023-08-06T13:43:00;25.60;57.80
75738;DHT22;64356;45.638;13.764;2023-08-06T13:45:25;25.50;57.70
75738;DHT22;64356;45.638;13.764;2023-08-06T13:47:51;25.50;57.80
75738;DHT22;64356;45.638;13.764;2023-08-06T13:50:16;25.40;57.70
75738;DHT22;64356;45.638;13.764;2023-08-06T13:52:42;25.40;57.80
75738;DHT22;64356;45.638;13.764;2023-08-06T13:55:08;25.40;57.90
75738;DHT22;64356;45.638;13.764;2023-08-06T13:57:34;25.30;57.90
75738;DHT22;64356;45.638;13.764;2023-08-06T13:59:59;25.30;57.90
75738;DHT22;64356;45.638;13.764;2023-08-06T14:02:25;25.30;58.00
75738;DHT22;64356;45.638;13.764;2023-08-06T14:04:52;25.20;57.90
75738;DHT22;64356;45.638;13.764;2023-08-06T14:07:17;25.20;57.80
75738;DHT22;64356;45.638;13.764;2023-08-06T14:09:43;25.20;57.90
75738;DHT22;64356;45.638;13.764;2023-08-06T14:12:09;25.20;58.00
75738;DHT22;64356;45.638;13.764;2023-08-06T14:14:35;25.20;58.00
75738;DHT22;64356;45.638;13.764;2023-08-06T14:17:01;25.20;58.00
75738;DHT22;64356;45.638;13.764;2023-08-06T14:19:26;25.20;58.00
75738;DHT22;64356;45.638;13.764;2023-08-06T14:21:52;25.20;57.90
75738;DHT22;64356;45.638;13.764;2023-08-06T14:24:18;25.10;57.90
75738;DHT22;64356;45.638;13.764;2023-08-06T14:26:43;25.20;57.90
75738;DHT22;64356;45.638;13.764;2023-08-06T14:29:09;25.10;57.60
75738;DHT22;64356;45.638;13.764;2023-08-06T14:31:35;25.10;57.60
75738;DHT22;64356;45.638;13.764;2023-08-06T14:34:00;25.10;57.50
75738;DHT22;64356;45.638;13.764;2023-08-06T14:36:26;25.00;57.40
75738;DHT22;64356;45.638;13.764;2023-08-06T14:38:51;25.10;57.40
75738;DHT22;64356;45.638;13.764;2023-08-06T14:41:17;25.10;57.30
75738;DHT22;64356;45.638;13.764;2023-08-06T14:43:43;25.00;57.30
75738;DHT22;64356;45.638;13.764;2023-08-06T14:46:08;25.00;57.30
75738;DHT22;64356;45.638;13.764;2023-08-06T14:48:34;25.00;57.30
75738;DHT22;64356;45.638;13.764;2023-08-06T14:50:59;25.00;57.10
75738;DHT22;64356;45.638;13.764;2023-08-06T14:53:25;25.00;56.90
75738;DHT22;64356;45.638;13.764;2023-08-06T14:55:50;25.00;56.90
75738;DHT22;64356;45.638;13.764;2023-08-06T14:58:16;25.00;56.80
75738;DHT22;64356;45.638;13.764;2023-08-06T15:00:41;25.00;56.80
75738;DHT22;64356;45.638;13.764;2023-08-06T15:03:07;25.00;56.90
75738;DHT22;64356;45.638;13.764;2023-08-06T15:05:33;25.00;56.90
75738;DHT22;64356;45.638;13.764;2023-08-06T15:07:59;25.00;57.00
75738;DHT22;64356;45.638;13.764;2023-08-06T15:10:25;25.00;57.30
75738;DHT22;64356;45.638;13.764;2023-08-06T15:12:50;25.00;57.20
75738;DHT22;64356;45.638;13.764;2023-08-06T15:15:16;25.00;57.20
75738;DHT22;64356;45.638;13.764;2023-08-06T15:17:41;25.00;57.30
75738;DHT22;64356;45.638;13.764;2023-08-06T15:20:07;25.00;57.40